Time;durP1;ratioP1;P1;durP2;ratioP2;P2;SDS_P1;SDS_P2;PMS_P1;PMS_P2;Temp;Humidity;BMP_temperature;BMP_pressure;BME280_temperature;BME280_humidity;BME280_pressure;Samples;Min_cycle;Max_cycle;Signal;HPM_P1;HPM_P2
2021/11/16 00:00:56;;;;;;;32.23;17.17;;;16.70;56.60;;;;;;5058627;28;20470;-80
2021/11/16 00:03:24;;;;;;;28.17;15.40;;;16.80;56.70;;;;;;5058948;28;20450;-81
2021/11/16 00:05:53;;;;;;;29.30;17.37;;;16.80;56.70;;;;;;5062010;28;20461;-82
2021/11/16 00:08:21;;;;;;;23.33;14.77;;;16.70;56.60;;;;;;5063350;28;20462;-82
2021/11/16 00:10:57;;;;;;;30.40;17.10;;;16.70;56.50;;;;;;5064438;28;20419;-82
2021/11/16 00:13:25;;;;;;;26.73;16.00;;;16.80;56.70;;;;;;5064122;28;20447;-82
2021/11/16 00:15:55;;;;;;;27.13;17.03;;;16.80;56.70;;;;;;5063349;28;20473;-83
2021/11/16 00:18:27;;;;;;;29.53;17.00;;;16.80;56.70;;;;;;5063176;28;20474;-83
2021/11/16 00:20:57;;;;;;;25.80;15.93;;;16.70;56.60;;;;;;5063184;28;20462;-83
2021/11/16 00:23:32;;;;;;;26.80;15.90;;;16.70;56.60;;;;;;5063111;28;20522;-82
2021/11/16 00:26:01;;;;;;;25.63;15.87;;;16.70;56.80;;;;;;5063233;28;20899;-82
2021/11/16 00:28:29;;;;;;;30.00;17.50;;;16.70;56.60;;;;;;5063271;28;20450;-83
2021/11/16 00:30:57;;;;;;;28.60;16.87;;;16.70;56.60;;;;;;5063199;28;20451;-82
2021/11/16 00:33:27;;;;;;;30.13;16.23;;;16.70;56.70;;;;;;5063356;28;20478;-82
2021/11/16 00:35:54;;;;;;;24.53;14.70;;;16.70;56.60;;;;;;5062937;28;20460;-82
2021/11/16 00:38:25;;;;;;;26.90;15.63;;;16.70;56.60;;;;;;5063107;28;20443;-82
2021/11/16 00:40:53;;;;;;;29.00;16.40;;;16.70;56.70;;;;;;5063315;28;20514;-82
2021/11/16 00:43:21;;;;;;;28.73;16.37;;;16.70;56.70;;;;;;5063442;28;20451;-83
2021/11/16 00:45:49;;;;;;;27.30;15.40;;;16.70;56.60;;;;;;5063124;28;20430;-83
2021/11/16 00:48:21;;;;;;;29.20;16.23;;;16.70;56.60;;;;;;5064351;28;20431;-83
2021/11/16 00:50:51;;;;;;;25.33;15.10;;;16.70;56.50;;;;;;5065297;28;20423;-83
2021/11/16 00:53:20;;;;;;;30.37;16.80;;;16.70;56.50;;;;;;5064641;28;20443;-83
2021/11/16 00:55:49;;;;;;;27.87;15.73;;;16.70;56.60;;;;;;5065224;28;20446;-83
2021/11/16 00:58:17;;;;;;;27.60;15.30;;;16.70;56.60;;;;;;5064761;28;20450;-83
2021/11/16 01:00:45;;;;;;;27.17;15.87;;;16.60;56.60;;;;;;5062435;28;20494;-83
2021/11/16 01:03:15;;;;;;;28.23;15.50;;;16.70;56.60;;;;;;5062771;28;20450;-83
2021/11/16 01:05:43;;;;;;;27.33;16.30;;;16.70;56.60;;;;;;5063078;28;20434;-83
2021/11/16 01:08:11;;;;;;;29.63;16.00;;;16.60;56.60;;;;;;5063082;28;20470;-82
2021/11/16 01:10:39;;;;;;;28.00;16.70;;;16.60;56.50;;;;;;5062904;28;20426;-82
2021/11/16 01:13:09;;;;;;;29.73;16.50;;;16.70;56.50;;;;;;5065889;28;20465;-83
2021/11/16 01:15:38;;;;;;;27.90;16.03;;;16.70;56.60;;;;;;5066562;28;20537;-83
2021/11/16 01:18:06;;;;;;;30.10;16.63;;;16.60;56.40;;;;;;5064317;28;20469;-83
2021/11/16 01:20:34;;;;;;;28.33;16.53;;;16.60;56.30;;;;;;5064371;28;20431;-83
2021/11/16 01:23:03;;;;;;;28.97;16.50;;;16.60;56.40;;;;;;5065369;28;20457;-83
2021/11/16 01:25:34;;;;;;;29.30;17.57;;;16.60;56.50;;;;;;5065208;28;20426;-83
2021/11/16 01:28:07;;;;;;;30.13;17.20;;;16.60;56.50;;;;;;5065197;28;20439;-83
2021/11/16 01:30:37;;;;;;;28.90;16.30;;;16.60;56.40;;;;;;5065074;28;20462;-83
2021/11/16 01:33:06;;;;;;;28.70;17.23;;;16.60;56.30;;;;;;5065033;28;20447;-83
2021/11/16 01:35:35;;;;;;;27.17;15.60;;;16.60;56.40;;;;;;5065164;28;20472;-83
2021/11/16 01:38:05;;;;;;;29.73;16.20;;;16.50;56.30;;;;;;5065947;28;20473;-83
2021/11/16 01:40:34;;;;;;;28.47;15.70;;;16.60;56.30;;;;;;5064952;28;20439;-83
2021/11/16 01:43:03;;;;;;;26.60;15.00;;;16.60;56.50;;;;;;5064759;28;20565;-83
2021/11/16 01:45:52;;;;;;;26.13;15.00;;;16.60;56.30;;;;;;5064801;28;20445;-83
2021/11/16 01:48:21;;;;;;;28.27;15.87;;;16.60;56.40;;;;;;5065136;28;20462;-83
2021/11/16 01:50:49;;;;;;;29.47;16.20;;;16.60;56.40;;;;;;5064940;28;20422;-83
2021/11/16 01:53:17;;;;;;;27.90;16.20;;;16.50;56.20;;;;;;5065080;28;20490;-83
2021/11/16 01:55:45;;;;;;;26.00;15.23;;;16.50;56.20;;;;;;5065406;28;20509;-83
2021/11/16 01:58:13;;;;;;;29.20;16.73;;;16.50;56.40;;;;;;5064778;28;20466;-82
2021/11/16 02:00:42;;;;;;;30.43;17.30;;;16.50;56.30;;;;;;5064810;28;20446;-83
2021/11/16 02:03:12;;;;;;;29.63;17.10;;;16.50;56.20;;;;;;5064616;28;20494;-83
2021/11/16 02:05:41;;;;;;;30.37;16.10;;;16.50;56.30;;;;;;5068527;28;20442;-83
2021/11/16 02:08:09;;;;;;;27.10;15.60;;;16.50;56.20;;;;;;5073926;28;20443;-83
2021/11/16 02:10:37;;;;;;;27.30;15.77;;;16.50;56.20;;;;;;5073761;28;20453;-82
2021/11/16 02:13:06;;;;;;;26.20;14.33;;;16.50;56.20;;;;;;5072432;28;20442;-82
2021/11/16 02:15:37;;;;;;;29.20;15.87;;;16.50;56.20;;;;;;5066772;28;20462;-82
2021/11/16 02:18:05;;;;;;;31.50;16.80;;;16.50;56.10;;;;;;5067671;28;20495;-82
2021/11/16 02:20:36;;;;;;;27.27;15.90;;;16.50;56.20;;;;;;5068459;28;20450;-83
2021/11/16 02:23:04;;;;;;;27.43;14.70;;;16.50;56.20;;;;;;5068385;28;20495;-82
2021/11/16 02:25:33;;;;;;;26.90;15.93;;;16.50;56.00;;;;;;5067428;28;20467;-82
2021/11/16 02:28:01;;;;;;;33.13;16.50;;;16.50;56.10;;;;;;5067237;28;20469;-82
2021/11/16 02:30:29;;;;;;;27.90;16.10;;;16.50;56.20;;;;;;5067322;28;20512;-82
2021/11/16 02:32:57;;;;;;;29.83;16.20;;;16.50;56.20;;;;;;5066470;28;20426;-82
2021/11/16 02:35:25;;;;;;;28.33;16.67;;;16.50;56.20;;;;;;5067267;28;20427;-83
2021/11/16 02:37:55;;;;;;;25.53;15.60;;;16.50;56.20;;;;;;5066312;28;20430;-82
2021/11/16 02:40:23;;;;;;;26.30;15.00;;;16.50;56.10;;;;;;5067159;28;20462;-82
2021/11/16 02:42:51;;;;;;;27.37;14.90;;;16.50;56.20;;;;;;5067450;28;20482;-83
2021/11/16 02:45:21;;;;;;;28.67;16.60;;;16.50;56.20;;;;;;5068216;28;20438;-83
2021/11/16 02:47:48;;;;;;;24.80;15.50;;;16.40;56.00;;;;;;5068514;28;20430;-83
2021/11/16 02:50:17;;;;;;;29.03;16.07;;;16.40;56.00;;;;;;5068272;28;20466;-83
2021/11/16 02:52:45;;;;;;;27.17;15.90;;;16.40;56.00;;;;;;5067198;28;20435;-83
2021/11/16 02:55:16;;;;;;;25.60;14.60;;;16.40;56.00;;;;;;5065914;28;20470;-83
2021/11/16 02:57:44;;;;;;;29.37;15.77;;;16.40;56.00;;;;;;5066721;28;20443;-83
2021/11/16 03:00:13;;;;;;;27.50;15.33;;;16.40;56.00;;;;;;5066225;28;20474;-82
2021/11/16 03:02:42;;;;;;;26.03;14.53;;;16.40;56.00;;;;;;5067586;28;20474;-82
2021/11/16 03:05:10;;;;;;;24.00;14.70;;;16.40;56.00;;;;;;5064362;28;20461;-82
2021/11/16 03:07:41;;;;;;;29.00;16.17;;;16.40;56.00;;;;;;5062226;28;20462;-82
2021/11/16 03:10:09;;;;;;;25.20;14.93;;;16.50;56.10;;;;;;5057502;28;20450;-83
2021/11/16 03:12:39;;;;;;;29.03;15.97;;;16.50;56.10;;;;;;5062735;28;20458;-82
2021/11/16 03:15:08;;;;;;;24.90;15.30;;;16.50;56.10;;;;;;5057917;28;20474;-82
2021/11/16 03:17:36;;;;;;;27.33;15.60;;;16.50;56.20;;;;;;5062541;28;20463;-82
2021/11/16 03:20:09;;;;;;;27.00;15.67;;;16.50;56.00;;;;;;5065129;28;20454;-83
2021/11/16 03:22:46;;;;;;;26.63;16.03;;;16.40;56.00;;;;;;5063018;28;20464;-82
2021/11/16 03:25:14;;;;;;;26.13;15.23;;;16.50;56.10;;;;;;5056111;28;20458;-82
2021/11/16 03:27:45;;;;;;;25.80;14.53;;;16.50;56.10;;;;;;5061263;28;20462;-82
2021/11/16 03:30:14;;;;;;;22.70;14.40;;;16.50;56.20;;;;;;5066475;28;20455;-82
2021/11/16 03:32:42;;;;;;;21.87;13.23;;;16.40;56.10;;;;;;5067018;28;20439;-82
2021/11/16 03:35:10;;;;;;;26.07;14.00;;;16.50;56.20;;;;;;5066849;28;20438;-82
2021/11/16 03:37:43;;;;;;;24.50;14.33;;;16.50;56.10;;;;;;5066663;28;20447;-82
2021/11/16 03:40:11;;;;;;;26.47;14.90;;;16.50;56.20;;;;;;5067185;28;20469;-82
2021/11/16 03:42:41;;;;;;;25.70;14.40;;;16.50;56.20;;;;;;5067063;28;20474;-82
2021/11/16 03:45:10;;;;;;;21.57;13.90;;;16.50;56.10;;;;;;5066814;28;20451;-82
2021/11/16 03:47:38;;;;;;;23.13;13.90;;;16.50;56.10;;;;;;5066741;28;20435;-83
2021/11/16 03:50:08;;;;;;;21.93;12.73;;;16.50;56.00;;;;;;5067946;28;20434;-83
2021/11/16 03:52:40;;;;;;;27.47;14.87;;;16.50;56.00;;;;;;5068060;28;20439;-83
2021/11/16 03:55:09;;;;;;;25.63;15.43;;;16.50;56.10;;;;;;5067196;28;20470;-83
2021/11/16 03:57:38;;;;;;;24.80;14.67;;;16.50;56.00;;;;;;5066765;28;20527;-83
2021/11/16 04:00:06;;;;;;;26.27;15.10;;;16.40;56.10;;;;;;5066779;28;20458;-83
2021/11/16 04:02:36;;;;;;;24.10;14.30;;;16.40;56.10;;;;;;5066478;28;20478;-83
2021/11/16 04:05:05;;;;;;;23.90;12.90;;;16.40;56.10;;;;;;5067267;28;20477;-83
2021/11/16 04:07:33;;;;;;;25.90;14.80;;;16.50;56.10;;;;;;5066659;28;20457;-83
2021/11/16 04:10:03;;;;;;;22.43;13.70;;;16.50;56.20;;;;;;5065766;28;20423;-83
2021/11/16 04:12:31;;;;;;;23.20;13.70;;;16.40;56.00;;;;;;5066043;28;20489;-83
2021/11/16 04:14:59;;;;;;;24.67;14.73;;;16.40;56.10;;;;;;5066753;28;20451;-83
2021/11/16 04:17:27;;;;;;;22.07;13.80;;;16.50;56.20;;;;;;5066688;28;20439;-83
2021/11/16 04:19:57;;;;;;;23.97;14.40;;;16.40;56.20;;;;;;5066908;28;20451;-83
2021/11/16 04:22:25;;;;;;;28.47;15.00;;;16.40;56.10;;;;;;5066388;28;20466;-83
2021/11/16 04:24:53;;;;;;;24.67;14.50;;;16.40;56.10;;;;;;5066388;28;20458;-83
2021/11/16 04:27:21;;;;;;;21.07;13.20;;;16.50;56.20;;;;;;5066612;28;20462;-83
2021/11/16 04:29:49;;;;;;;25.13;14.17;;;16.50;56.20;;;;;;5066175;28;20447;-83
2021/11/16 04:32:17;;;;;;;23.13;14.93;;;16.50;56.20;;;;;;5066662;28;20446;-83
2021/11/16 04:34:45;;;;;;;21.63;13.70;;;16.40;56.20;;;;;;5066557;28;20454;-83
2021/11/16 04:37:14;;;;;;;24.33;14.07;;;16.50;56.10;;;;;;5065757;28;20446;-83
2021/11/16 04:39:43;;;;;;;22.40;13.47;;;16.50;56.20;;;;;;5066391;28;20434;-83
2021/11/16 04:42:11;;;;;;;24.53;14.67;;;16.50;56.10;;;;;;5065592;28;20446;-83
2021/11/16 04:44:40;;;;;;;22.30;13.53;;;16.50;56.20;;;;;;5065672;28;20470;-84
2021/11/16 04:47:10;;;;;;;24.10;14.10;;;16.50;56.20;;;;;;5065228;28;20443;-83
2021/11/16 04:49:41;;;;;;;26.77;14.60;;;16.50;56.20;;;;;;5066112;28;20447;-83
2021/11/16 04:52:20;;;;;;;24.43;13.90;;;16.50;56.20;;;;;;5066443;28;20438;-83
2021/11/16 05:03:10;;;;;;;21.37;13.23;;;16.40;56.20;;;;;;5062761;28;20482;-83
2021/11/16 05:05:38;;;;;;;21.10;13.00;;;16.50;56.20;;;;;;5057764;28;20545;-83
2021/11/16 05:08:06;;;;;;;25.20;14.93;;;16.50;56.30;;;;;;5054925;28;20506;-82
2021/11/16 05:10:35;;;;;;;21.33;13.77;;;16.40;56.20;;;;;;5064694;28;20458;-82
2021/11/16 05:13:03;;;;;;;21.33;13.03;;;16.50;56.30;;;;;;5065726;28;20466;-82
2021/11/16 05:15:34;;;;;;;18.83;13.23;;;16.40;56.10;;;;;;5064735;28;20466;-82
2021/11/16 05:18:02;;;;;;;24.07;14.27;;;16.40;56.10;;;;;;5059208;28;20462;-82
2021/11/16 05:20:30;;;;;;;22.40;13.63;;;16.50;56.20;;;;;;5058848;28;20438;-82
2021/11/16 05:22:58;;;;;;;21.70;13.10;;;16.50;56.20;;;;;;5057159;28;20641;-81
2021/11/16 05:25:26;;;;;;;21.17;13.03;;;16.50;56.20;;;;;;5056629;28;20462;-81
2021/11/16 05:27:55;;;;;;;23.37;13.80;;;16.50;56.20;;;;;;5059439;28;20534;-82
2021/11/16 05:30:27;;;;;;;26.00;14.60;;;16.40;56.20;;;;;;5064305;28;20442;-82
2021/11/16 05:32:56;;;;;;;21.80;13.13;;;16.40;56.20;;;;;;5059245;28;20434;-81
2021/11/16 05:35:24;;;;;;;23.03;14.20;;;16.40;56.10;;;;;;5056988;28;20525;-81
2021/11/16 05:37:52;;;;;;;22.17;13.70;;;16.40;56.10;;;;;;5056871;28;20522;-81
2021/11/16 05:40:20;;;;;;;21.83;12.90;;;16.40;56.20;;;;;;5056991;28;20462;-82
2021/11/16 05:42:48;;;;;;;23.43;13.63;;;16.40;56.20;;;;;;5056841;28;20437;-82
2021/11/16 05:45:18;;;;;;;27.33;14.83;;;16.40;56.20;;;;;;5066725;28;20470;-82
2021/11/16 05:47:46;;;;;;;21.17;13.63;;;16.40;56.20;;;;;;5067037;28;20793;-82
2021/11/16 05:50:14;;;;;;;20.73;13.10;;;16.40;56.10;;;;;;5068848;28;20518;-82
2021/11/16 05:52:42;;;;;;;20.97;12.83;;;16.40;56.20;;;;;;5070815;28;20415;-82
2021/11/16 05:55:10;;;;;;;20.60;12.43;;;16.40;56.20;;;;;;5070109;28;20418;-82
2021/11/16 05:57:39;;;;;;;21.27;12.87;;;16.40;56.20;;;;;;5069843;28;20443;-83
2021/11/16 06:00:08;;;;;;;25.80;14.20;;;16.40;56.20;;;;;;5064167;28;20980;-83
2021/11/16 06:02:38;;;;;;;25.97;14.50;;;16.40;56.30;;;;;;5067719;28;20492;-83
2021/11/16 06:05:07;;;;;;;26.10;14.20;;;16.50;56.30;;;;;;5067824;28;20470;-82
2021/11/16 06:07:35;;;;;;;22.30;13.37;;;16.40;56.20;;;;;;5067968;28;20463;-82
2021/11/16 06:10:03;;;;;;;24.40;13.77;;;16.40;56.20;;;;;;5067625;28;20442;-82
2021/11/16 06:12:31;;;;;;;23.57;14.03;;;16.40;56.30;;;;;;5067101;28;20439;-82
2021/11/16 06:14:59;;;;;;;20.80;12.87;;;16.40;56.20;;;;;;5067836;28;20497;-82
2021/11/16 06:17:27;;;;;;;22.23;13.23;;;16.50;56.30;;;;;;5067663;28;20462;-82
2021/11/16 06:19:57;;;;;;;22.50;13.87;;;16.40;56.10;;;;;;5067466;28;20438;-83
2021/11/16 06:22:25;;;;;;;20.50;13.20;;;16.40;56.30;;;;;;5067978;28;20480;-81
2021/11/16 06:24:53;;;;;;;20.77;12.37;;;16.40;56.30;;;;;;5067823;28;20493;-81
2021/11/16 06:27:21;;;;;;;22.70;13.33;;;16.40;56.20;;;;;;5067511;28;20438;-81
2021/11/16 06:29:49;;;;;;;21.70;12.93;;;16.40;56.20;;;;;;5067789;28;20501;-84
2021/11/16 06:32:17;;;;;;;21.47;13.20;;;16.40;56.10;;;;;;5061213;28;20728;-83
2021/11/16 06:34:45;;;;;;;20.87;13.27;;;16.40;56.20;;;;;;5062041;28;20478;-84
2021/11/16 06:37:14;;;;;;;21.20;12.63;;;16.40;56.20;;;;;;5061085;28;20481;-83
2021/11/16 06:39:43;;;;;;;19.20;11.93;;;16.40;56.30;;;;;;5066529;28;20453;-83
2021/11/16 06:42:13;;;;;;;23.73;13.67;;;16.50;56.20;;;;;;5067667;28;20514;-83
2021/11/16 06:44:42;;;;;;;21.47;12.50;;;16.40;56.10;;;;;;5067613;28;20506;-83
2021/11/16 06:47:12;;;;;;;20.63;12.70;;;16.40;56.30;;;;;;5066928;28;20450;-84
2021/11/16 06:49:42;;;;;;;19.43;12.47;;;16.40;56.30;;;;;;5067127;28;20459;-83
2021/11/16 06:52:09;;;;;;;21.10;12.93;;;16.40;56.80;;;;;;5067285;28;20426;-83
2021/11/16 06:54:39;;;;;;;20.80;13.43;;;16.40;56.30;;;;;;5066678;28;20454;-84
2021/11/16 06:57:08;;;;;;;22.60;12.90;;;16.40;56.40;;;;;;5061624;28;20470;-82
2021/11/16 06:59:36;;;;;;;19.07;12.03;;;16.40;56.30;;;;;;5059304;28;20485;-82
2021/11/16 07:02:05;;;;;;;19.67;12.40;;;16.40;56.20;;;;;;5059912;28;20438;-83
2021/11/16 07:04:37;;;;;;;20.37;12.40;;;16.40;56.30;;;;;;5059376;28;20558;-83
2021/11/16 07:07:05;;;;;;;20.27;12.80;;;16.40;56.20;;;;;;5059318;28;20431;-83
2021/11/16 07:09:36;;;;;;;21.50;12.87;;;16.40;56.30;;;;;;5059476;28;20459;-82
2021/11/16 07:12:10;;;;;;;21.03;12.67;;;16.40;56.30;;;;;;5059068;28;20466;-82
2021/11/16 07:14:39;;;;;;;20.93;13.50;;;16.40;56.40;;;;;;5059689;28;20465;-82
2021/11/16 07:17:07;;;;;;;18.93;12.23;;;16.40;56.30;;;;;;5058830;28;20519;-82
2021/11/16 07:19:37;;;;;;;22.33;13.53;;;16.30;56.10;;;;;;5059067;28;20949;-82
2021/11/16 07:22:08;;;;;;;20.63;12.63;;;16.40;56.30;;;;;;5058722;28;20957;-82
2021/11/16 07:24:41;;;;;;;20.43;12.67;;;16.40;56.30;;;;;;5059025;28;20657;-83
2021/11/16 07:27:11;;;;;;;22.80;13.30;;;16.30;56.60;;;;;;5064602;28;20442;-84
2021/11/16 07:29:41;;;;;;;21.20;12.90;;;16.30;56.10;;;;;;5066835;28;20467;-84
2021/11/16 07:32:11;;;;;;;23.67;12.80;;;16.40;56.20;;;;;;5067655;28;20468;-84
2021/11/16 07:34:39;;;;;;;19.97;12.63;;;16.40;56.20;;;;;;5068177;28;20482;-83
2021/11/16 07:37:08;;;;;;;21.20;13.17;;;16.40;56.20;;;;;;5061089;28;20918;-83
2021/11/16 07:39:49;;;;;;;21.43;13.03;;;16.40;56.10;;;;;;5061473;28;20518;-84
2021/11/16 07:42:20;;;;;;;20.70;12.63;;;16.40;56.30;;;;;;5061297;28;20442;-84
2021/11/16 07:45:09;;;;;;;19.57;11.27;;;16.30;56.20;;;;;;5061445;28;21052;-84
2021/11/16 07:47:41;;;;;;;21.10;13.30;;;16.40;56.30;;;;;;5062141;28;20530;-84
2021/11/16 07:50:11;;;;;;;20.27;12.80;;;16.30;56.20;;;;;;5068325;28;20426;-84
2021/11/16 07:52:39;;;;;;;22.43;13.10;;;16.40;56.40;;;;;;5067301;28;20459;-84
2021/11/16 07:55:07;;;;;;;21.23;12.53;;;16.40;56.30;;;;;;5068126;28;20558;-84
2021/11/16 07:57:44;;;;;;;20.63;12.43;;;16.40;56.20;;;;;;5067446;28;20450;-84
2021/11/16 08:00:19;;;;;;;21.83;12.50;;;16.40;56.20;;;;;;5066585;28;20453;-84
2021/11/16 08:02:52;;;;;;;19.77;12.10;;;16.40;56.30;;;;;;5065799;28;20426;-83
2021/11/16 08:05:30;;;;;;;22.07;12.70;;;16.40;56.30;;;;;;5066616;28;20490;-83
2021/11/16 08:08:15;;;;;;;18.77;11.73;;;16.40;56.30;;;;;;5066833;28;20469;-83
2021/11/16 08:10:46;;;;;;;19.47;12.77;;;16.40;56.20;;;;;;5066596;28;20446;-83
2021/11/16 08:13:19;;;;;;;21.57;13.10;;;16.40;56.40;;;;;;5065159;28;20451;-83
2021/11/16 08:15:47;;;;;;;19.27;11.50;;;16.40;56.30;;;;;;5066571;28;20469;-83
2021/11/16 08:18:17;;;;;;;15.90;11.30;;;16.40;56.20;;;;;;5065566;28;20431;-83
2021/11/16 08:20:44;;;;;;;22.20;13.03;;;16.40;56.30;;;;;;5065646;28;20561;-83
2021/11/16 08:23:13;;;;;;;20.37;12.43;;;16.40;56.30;;;;;;5065594;28;20490;-83
2021/11/16 08:25:40;;;;;;;20.77;11.73;;;16.30;56.20;;;;;;5065821;28;20504;-83
2021/11/16 08:28:09;;;;;;;20.00;13.10;;;16.30;56.10;;;;;;5065624;28;20458;-83
2021/11/16 08:30:39;;;;;;;20.23;12.60;;;16.40;56.20;;;;;;5065560;28;20431;-83
2021/11/16 08:33:07;;;;;;;18.50;11.80;;;16.30;56.10;;;;;;5064966;28;20479;-83
2021/11/16 08:35:35;;;;;;;19.13;12.70;;;16.40;56.30;;;;;;5065443;28;20636;-83
2021/11/16 08:38:05;;;;;;;18.00;11.70;;;16.40;56.30;;;;;;5065734;28;20438;-83
2021/11/16 08:40:36;;;;;;;18.97;11.93;;;16.40;56.20;;;;;;5065607;28;20819;-83
2021/11/16 08:43:11;;;;;;;22.90;13.57;;;16.40;56.20;;;;;;5065064;28;20431;-83
2021/11/16 08:45:46;;;;;;;18.37;11.80;;;16.30;56.10;;;;;;5069491;28;20446;-83
2021/11/16 08:48:16;;;;;;;20.77;12.73;;;16.30;56.10;;;;;;5073722;28;20423;-82
2021/11/16 08:50:45;;;;;;;21.70;12.60;;;16.40;56.30;;;;;;5069222;28;20518;-82
2021/11/16 08:53:14;;;;;;;20.83;11.20;;;16.40;56.30;;;;;;5063575;28;20474;-82
2021/11/16 08:55:43;;;;;;;18.80;11.57;;;16.40;56.20;;;;;;5057290;28;20441;-82
2021/11/16 08:58:12;;;;;;;19.87;12.20;;;16.40;56.20;;;;;;5056942;28;20450;-82
2021/11/16 09:00:42;;;;;;;21.10;12.53;;;16.40;56.30;;;;;;5064198;28;20457;-83
2021/11/16 09:03:12;;;;;;;19.23;11.87;;;16.40;56.20;;;;;;5066253;28;20457;-83
2021/11/16 09:05:43;;;;;;;17.00;11.53;;;16.40;56.10;;;;;;5066488;28;20549;-83
2021/11/16 09:08:13;;;;;;;18.27;11.83;;;16.40;56.20;;;;;;5065833;28;20434;-83
2021/11/16 09:10:42;;;;;;;20.50;12.20;;;16.40;56.10;;;;;;5065531;28;20449;-83
2021/11/16 09:13:11;;;;;;;19.60;12.73;;;16.40;56.10;;;;;;5065171;28;20486;-83
2021/11/16 09:15:41;;;;;;;19.10;12.50;;;16.40;56.10;;;;;;5065316;28;20510;-83
2021/11/16 09:18:13;;;;;;;20.53;12.60;;;16.40;56.10;;;;;;5065003;28;20427;-83
2021/11/16 09:20:41;;;;;;;24.23;13.20;;;16.40;56.20;;;;;;5062529;28;20477;-83
2021/11/16 09:23:09;;;;;;;20.53;12.80;;;16.40;56.10;;;;;;5059892;28;20466;-83
2021/11/16 09:25:38;;;;;;;19.87;12.10;;;16.40;56.80;;;;;;5061213;28;20517;-82
2021/11/16 09:28:25;;;;;;;22.10;13.47;;;16.40;56.20;;;;;;5066790;28;20435;-82
2021/11/16 09:30:55;;;;;;;20.13;12.70;;;16.40;56.30;;;;;;5067650;28;20442;-82
2021/11/16 09:33:23;;;;;;;18.83;12.33;;;16.40;56.20;;;;;;5066524;28;21003;-82
2021/11/16 09:35:54;;;;;;;20.03;12.70;;;16.40;56.10;;;;;;5066089;28;20446;-83
2021/11/16 09:38:40;;;;;;;21.77;12.93;;;16.40;56.20;;;;;;5065385;28;20528;-83
2021/11/16 09:41:09;;;;;;;21.73;13.10;;;16.40;56.30;;;;;;5066112;28;20467;-83
2021/11/16 09:43:37;;;;;;;20.27;13.27;;;16.40;56.30;;;;;;5065585;28;20435;-83
2021/11/16 09:46:08;;;;;;;18.77;11.53;;;16.40;56.20;;;;;;5065319;28;20474;-83
2021/11/16 09:48:37;;;;;;;21.30;12.87;;;16.40;56.20;;;;;;5065712;28;20447;-83
2021/11/16 09:51:13;;;;;;;21.00;12.70;;;16.40;56.10;;;;;;5066018;28;20462;-83
2021/11/16 09:53:41;;;;;;;18.90;12.10;;;16.40;56.20;;;;;;5065838;28;20450;-83
2021/11/16 09:56:18;;;;;;;23.00;13.10;;;16.40;56.20;;;;;;5066374;28;20427;-82
2021/11/16 09:58:46;;;;;;;23.40;13.30;;;16.40;56.10;;;;;;5067096;28;20441;-82
2021/11/16 10:01:23;;;;;;;22.83;13.60;;;16.40;56.20;;;;;;5066651;28;20450;-82
2021/11/16 10:04:05;;;;;;;21.57;12.50;;;16.40;56.00;;;;;;5065643;28;20538;-83
2021/11/16 10:06:35;;;;;;;20.57;12.60;;;16.40;56.00;;;;;;5062557;28;20467;-82
2021/11/16 10:09:04;;;;;;;23.47;14.00;;;16.40;56.70;;;;;;5056253;28;20477;-82
2021/11/16 10:11:32;;;;;;;20.73;12.77;;;16.40;56.00;;;;;;5056830;28;20478;-82
2021/11/16 10:14:00;;;;;;;23.07;13.10;;;16.40;56.00;;;;;;5063348;28;20474;-83
2021/11/16 10:16:34;;;;;;;20.40;12.80;;;16.40;56.00;;;;;;5065066;28;20466;-83
2021/11/16 10:19:02;;;;;;;21.10;12.63;;;16.40;56.10;;;;;;5064507;28;20455;-83
2021/11/16 10:21:31;;;;;;;20.47;12.90;;;16.40;56.10;;;;;;5064497;28;20431;-83
2021/11/16 10:24:00;;;;;;;19.90;13.10;;;16.40;56.00;;;;;;5059491;28;20553;-83
2021/11/16 10:26:33;;;;;;;22.03;13.03;;;16.40;56.00;;;;;;5057953;28;20477;-83
2021/11/16 10:29:01;;;;;;;23.27;13.83;;;16.40;56.00;;;;;;5063519;28;20529;-83
2021/11/16 10:31:30;;;;;;;24.50;13.77;;;16.40;56.00;;;;;;5063926;28;20522;-83
2021/11/16 10:34:00;;;;;;;23.93;13.77;;;16.40;55.90;;;;;;5063888;28;20466;-83
2021/11/16 10:36:28;;;;;;;25.57;13.40;;;16.30;55.90;;;;;;5067664;28;20933;-83
2021/11/16 10:38:59;;;;;;;25.27;13.97;;;16.30;55.90;;;;;;5068120;28;20492;-83
2021/11/16 10:41:28;;;;;;;24.60;13.87;;;16.40;56.00;;;;;;5067652;28;20450;-83
2021/11/16 10:43:57;;;;;;;21.60;13.40;;;16.40;55.90;;;;;;5067542;28;20477;-83
2021/11/16 10:46:27;;;;;;;21.67;12.10;;;16.40;55.90;;;;;;5066742;28;20498;-83
2021/11/16 10:48:56;;;;;;;21.87;12.97;;;16.40;56.00;;;;;;5067223;28;20439;-82
2021/11/16 10:51:29;;;;;;;20.43;12.27;;;16.40;55.90;;;;;;5065627;28;20481;-83
2021/11/16 10:53:57;;;;;;;24.47;13.90;;;16.30;55.90;;;;;;5065525;28;20450;-83
2021/11/16 10:56:27;;;;;;;24.23;13.80;;;16.30;55.80;;;;;;5065202;28;20451;-82
2021/11/16 10:58:56;;;;;;;24.83;13.40;;;16.40;55.80;;;;;;5064763;28;20449;-82
2021/11/16 11:01:25;;;;;;;21.87;12.50;;;16.40;55.90;;;;;;5064636;28;20439;-82
2021/11/16 11:03:55;;;;;;;27.07;14.30;;;16.40;55.80;;;;;;5064403;28;20465;-82
2021/11/16 11:06:24;;;;;;;26.20;14.47;;;16.40;55.90;;;;;;5063964;28;20466;-82
2021/11/16 11:08:54;;;;;;;26.23;14.17;;;16.40;55.80;;;;;;5063952;28;20420;-82
2021/11/16 11:11:27;;;;;;;23.00;13.87;;;16.40;55.80;;;;;;5064205;28;20998;-82
2021/11/16 11:13:58;;;;;;;23.90;13.07;;;16.40;55.70;;;;;;5061060;28;20530;-83
2021/11/16 11:16:27;;;;;;;23.07;13.73;;;16.40;55.70;;;;;;5059962;28;20453;-83
2021/11/16 11:18:55;;;;;;;24.90;14.70;;;16.40;55.60;;;;;;5060119;28;20448;-83
2021/11/16 11:21:27;;;;;;;25.23;14.40;;;16.40;56.30;;;;;;5060216;28;20427;-83
2021/11/16 11:23:59;;;;;;;24.97;14.50;;;16.40;55.70;;;;;;5060162;28;20485;-82
2021/11/16 11:26:33;;;;;;;23.07;13.43;;;16.40;55.80;;;;;;5059731;28;20490;-83
2021/11/16 11:29:14;;;;;;;25.30;13.87;;;16.30;55.60;;;;;;5060468;28;20461;-83
2021/11/16 11:31:42;;;;;;;22.70;12.40;;;16.40;55.80;;;;;;5060161;28;20930;-83
2021/11/16 11:34:11;;;;;;;25.50;13.70;;;16.40;55.70;;;;;;5059614;28;20526;-83
2021/11/16 11:36:40;;;;;;;24.90;13.63;;;16.40;55.60;;;;;;5059565;28;20484;-83
2021/11/16 11:39:31;;;;;;;22.43;12.93;;;16.40;55.60;;;;;;5059983;28;20438;-83
2021/11/16 11:42:00;;;;;;;26.00;14.13;;;16.40;55.60;;;;;;5059047;28;20481;-83
2021/11/16 11:44:29;;;;;;;26.83;14.87;;;16.40;55.70;;;;;;5059675;28;20478;-83
2021/11/16 11:46:58;;;;;;;21.30;13.53;;;16.40;55.80;;;;;;5058175;28;20475;-83
2021/11/16 11:49:28;;;;;;;26.63;14.70;;;16.40;55.60;;;;;;5059708;28;20438;-82
2021/11/16 11:51:58;;;;;;;25.23;13.30;;;16.40;55.60;;;;;;5060131;28;20437;-83
2021/11/16 11:54:25;;;;;;;23.17;14.03;;;16.40;55.60;;;;;;5058987;28;20534;-83
2021/11/16 11:56:55;;;;;;;26.60;15.23;;;16.40;55.70;;;;;;5058874;28;20430;-83
2021/11/16 11:59:24;;;;;;;22.63;13.40;;;16.40;55.80;;;;;;5059061;28;20427;-83
2021/11/16 12:01:52;;;;;;;25.33;15.20;;;16.40;55.70;;;;;;5059209;28;20478;-83
2021/11/16 12:04:20;;;;;;;22.80;13.27;;;16.40;55.60;;;;;;5059101;28;20530;-83
2021/11/16 12:06:49;;;;;;;24.37;13.40;;;16.40;55.60;;;;;;5058971;28;20616;-83
2021/11/16 12:09:19;;;;;;;23.53;13.27;;;16.40;55.50;;;;;;5059091;28;20446;-83
2021/11/16 12:11:46;;;;;;;23.67;12.87;;;16.40;55.70;;;;;;5058942;28;20430;-83
2021/11/16 12:14:35;;;;;;;25.27;14.37;;;16.40;55.60;;;;;;5059082;28;20466;-83
2021/11/16 12:17:07;;;;;;;23.70;12.93;;;16.40;55.70;;;;;;5058684;28;20466;-83
2021/11/16 12:19:48;;;;;;;23.20;13.50;;;16.30;55.60;;;;;;5058941;28;20510;-83
2021/11/16 12:22:21;;;;;;;23.80;13.00;;;16.40;55.80;;;;;;5058682;28;20442;-83
2021/11/16 12:24:49;;;;;;;25.27;13.57;;;16.40;55.80;;;;;;5058628;28;20482;-83
2021/11/16 12:27:17;;;;;;;27.53;14.37;;;16.40;55.70;;;;;;5058996;28;20493;-83
2021/11/16 12:29:49;;;;;;;23.83;13.40;;;16.40;55.60;;;;;;5058991;28;20442;-83
2021/11/16 12:32:21;;;;;;;24.77;13.50;;;16.40;55.60;;;;;;5058968;28;20442;-83
2021/11/16 12:34:52;;;;;;;26.60;14.17;;;16.40;55.60;;;;;;5058225;28;20451;-83
2021/11/16 12:37:42;;;;;;;21.73;12.50;;;16.40;55.60;;;;;;5058651;28;20481;-83
2021/11/16 12:40:22;;;;;;;21.43;13.37;;;16.40;55.60;;;;;;5057844;28;20539;-83
2021/11/16 12:43:09;;;;;;;23.00;13.60;;;16.40;55.60;;;;;;5059078;28;20474;-83
2021/11/16 12:45:39;;;;;;;23.33;13.30;;;16.30;55.60;;;;;;5058353;28;20445;-83
2021/11/16 12:48:07;;;;;;;21.10;12.93;;;16.40;55.70;;;;;;5058397;28;20505;-83
2021/11/16 12:50:36;;;;;;;23.80;13.87;;;16.40;55.60;;;;;;5057983;28;20533;-83